Ashton, Kansas
Current Conditions -  °F | °C
As of 5:54 PM on Friday 24 Oct 2014 (Local Time) from KWLD Reporting Station
Clear Clear  
Wind Chill: 79°   Ceiling: Unl
Heat Index: 81°   Visibility: 10mi
Dew Point: 63°   Wind: 10mph
Humidity: 58%   Direction: 210°SSW
Pressure: 30.01"   Gusts: NA
Location:  37.0641°N, 97.2025°W
Report Text: KWLD 242254Z AUTO 21009KT 10SM CLR 26/17 A3001 RMK AO2 SLP153 T02610172
Loading
Personal Weather Stations






























Interactive Weather Map New forecast layout! Learn more

10-Day Weather Forecast

Advertisements
Track Severe Weather on mobile